sensor_id;sensor_type;location;lat;lon;timestamp;temperature;humidity
40828;DHT22;26549;50.918;5.338;2023-05-23T00:00:57;16.60;99.90
40828;DHT22;26549;50.918;5.338;2023-05-23T00:03:24;16.60;99.90
40828;DHT22;26549;50.918;5.338;2023-05-23T00:05:50;16.60;99.90
40828;DHT22;26549;50.918;5.338;2023-05-23T00:08:16;16.70;99.90
40828;DHT22;26549;50.918;5.338;2023-05-23T00:10:43;16.90;99.90
40828;DHT22;26549;50.918;5.338;2023-05-23T00:13:08;16.80;99.90
40828;DHT22;26549;50.918;5.338;2023-05-23T00:15:37;16.80;99.90
40828;DHT22;26549;50.918;5.338;2023-05-23T00:18:03;16.90;99.90
40828;DHT22;26549;50.918;5.338;2023-05-23T00:20:29;17.00;99.90
40828;DHT22;26549;50.918;5.338;2023-05-23T00:22:55;17.10;99.90
40828;DHT22;26549;50.918;5.338;2023-05-23T00:25:24;17.10;99.90
40828;DHT22;26549;50.918;5.338;2023-05-23T00:27:50;17.00;99.90
40828;DHT22;26549;50.918;5.338;2023-05-23T00:30:16;17.00;99.90
40828;DHT22;26549;50.918;5.338;2023-05-23T00:32:42;16.90;99.90
40828;DHT22;26549;50.918;5.338;2023-05-23T00:35:08;16.90;99.90
40828;DHT22;26549;50.918;5.338;2023-05-23T00:37:34;17.00;99.90
40828;DHT22;26549;50.918;5.338;2023-05-23T00:39:59;16.90;99.90
40828;DHT22;26549;50.918;5.338;2023-05-23T00:42:25;16.90;99.90
40828;DHT22;26549;50.918;5.338;2023-05-23T00:44:51;16.80;99.90
40828;DHT22;26549;50.918;5.338;2023-05-23T00:47:17;16.90;99.90
40828;DHT22;26549;50.918;5.338;2023-05-23T00:49:43;16.80;99.90
40828;DHT22;26549;50.918;5.338;2023-05-23T00:52:09;16.70;99.90
40828;DHT22;26549;50.918;5.338;2023-05-23T00:54:35;16.60;99.90
40828;DHT22;26549;50.918;5.338;2023-05-23T00:57:02;16.70;99.90
40828;DHT22;26549;50.918;5.338;2023-05-23T00:59:28;16.70;99.90
40828;DHT22;26549;50.918;5.338;2023-05-23T01:01:56;16.70;99.90
40828;DHT22;26549;50.918;5.338;2023-05-23T01:04:22;16.60;99.90
40828;DHT22;26549;50.918;5.338;2023-05-23T01:06:54;16.70;99.90
40828;DHT22;26549;50.918;5.338;2023-05-23T01:09:21;16.70;99.90
40828;DHT22;26549;50.918;5.338;2023-05-23T01:12:00;16.60;99.90
40828;DHT22;26549;50.918;5.338;2023-05-23T01:14:53;16.60;99.90
40828;DHT22;26549;50.918;5.338;2023-05-23T01:20:14;16.30;99.90
40828;DHT22;26549;50.918;5.338;2023-05-23T01:28:32;15.90;99.90
40828;DHT22;26549;50.918;5.338;2023-05-23T01:31:03;15.80;99.90
40828;DHT22;26549;50.918;5.338;2023-05-23T01:33:30;15.90;99.90
40828;DHT22;26549;50.918;5.338;2023-05-23T01:35:57;15.90;99.90
40828;DHT22;26549;50.918;5.338;2023-05-23T01:38:26;16.10;99.90
40828;DHT22;26549;50.918;5.338;2023-05-23T01:40:52;15.90;99.90
40828;DHT22;26549;50.918;5.338;2023-05-23T01:43:19;16.00;99.90
40828;DHT22;26549;50.918;5.338;2023-05-23T01:45:45;16.10;99.90
40828;DHT22;26549;50.918;5.338;2023-05-23T01:48:12;16.30;99.90
40828;DHT22;26549;50.918;5.338;2023-05-23T01:50:41;16.30;99.90
40828;DHT22;26549;50.918;5.338;2023-05-23T01:53:11;16.30;99.90
40828;DHT22;26549;50.918;5.338;2023-05-23T01:55:39;16.20;99.90
40828;DHT22;26549;50.918;5.338;2023-05-23T01:58:05;16.20;99.90
40828;DHT22;26549;50.918;5.338;2023-05-23T02:00:32;16.20;99.90
40828;DHT22;26549;50.918;5.338;2023-05-23T02:03:00;16.30;99.90
40828;DHT22;26549;50.918;5.338;2023-05-23T02:05:26;16.30;99.90
40828;DHT22;26549;50.918;5.338;2023-05-23T02:07:52;16.20;99.90
40828;DHT22;26549;50.918;5.338;2023-05-23T02:10:18;16.40;99.90
40828;DHT22;26549;50.918;5.338;2023-05-23T02:12:44;16.40;99.90
40828;DHT22;26549;50.918;5.338;2023-05-23T02:15:10;16.30;99.90
40828;DHT22;26549;50.918;5.338;2023-05-23T02:17:36;16.20;99.90
40828;DHT22;26549;50.918;5.338;2023-05-23T02:20:05;16.30;99.90
40828;DHT22;26549;50.918;5.338;2023-05-23T02:22:31;16.40;99.90
40828;DHT22;26549;50.918;5.338;2023-05-23T02:24:56;16.50;99.90
40828;DHT22;26549;50.918;5.338;2023-05-23T02:27:23;16.40;99.90
40828;DHT22;26549;50.918;5.338;2023-05-23T02:29:49;16.40;99.90
40828;DHT22;26549;50.918;5.338;2023-05-23T02:32:15;16.60;99.90
40828;DHT22;26549;50.918;5.338;2023-05-23T02:34:40;16.50;99.90
40828;DHT22;26549;50.918;5.338;2023-05-23T02:37:06;16.40;99.90
40828;DHT22;26549;50.918;5.338;2023-05-23T02:39:34;16.50;99.90
40828;DHT22;26549;50.918;5.338;2023-05-23T02:42:00;16.20;99.90
40828;DHT22;26549;50.918;5.338;2023-05-23T02:44:27;16.00;99.90
40828;DHT22;26549;50.918;5.338;2023-05-23T02:46:53;16.00;99.90
40828;DHT22;26549;50.918;5.338;2023-05-23T02:49:18;16.10;99.90
40828;DHT22;26549;50.918;5.338;2023-05-23T02:51:44;15.90;99.90
40828;DHT22;26549;50.918;5.338;2023-05-23T02:54:10;15.90;99.90
40828;DHT22;26549;50.918;5.338;2023-05-23T02:56:36;15.80;99.90
40828;DHT22;26549;50.918;5.338;2023-05-23T02:59:01;15.70;99.90
40828;DHT22;26549;50.918;5.338;2023-05-23T03:01:27;15.60;99.90
40828;DHT22;26549;50.918;5.338;2023-05-23T03:03:53;15.70;99.90
40828;DHT22;26549;50.918;5.338;2023-05-23T03:06:18;15.70;99.90
40828;DHT22;26549;50.918;5.338;2023-05-23T03:08:48;15.80;99.90
40828;DHT22;26549;50.918;5.338;2023-05-23T03:11:13;15.90;99.90
40828;DHT22;26549;50.918;5.338;2023-05-23T03:13:39;15.90;99.90
40828;DHT22;26549;50.918;5.338;2023-05-23T03:16:05;15.90;99.90
40828;DHT22;26549;50.918;5.338;2023-05-23T03:18:31;15.90;99.90
40828;DHT22;26549;50.918;5.338;2023-05-23T03:20:56;15.70;99.90
40828;DHT22;26549;50.918;5.338;2023-05-23T03:23:22;15.70;99.90
40828;DHT22;26549;50.918;5.338;2023-05-23T03:25:48;15.80;99.90
40828;DHT22;26549;50.918;5.338;2023-05-23T03:28:14;15.80;99.90
40828;DHT22;26549;50.918;5.338;2023-05-23T03:30:40;15.70;99.90
40828;DHT22;26549;50.918;5.338;2023-05-23T03:33:06;15.70;99.90
40828;DHT22;26549;50.918;5.338;2023-05-23T03:35:31;15.70;99.90
40828;DHT22;26549;50.918;5.338;2023-05-23T03:37:57;15.60;99.90
40828;DHT22;26549;50.918;5.338;2023-05-23T03:40:23;15.40;99.90
40828;DHT22;26549;50.918;5.338;2023-05-23T03:43:03;15.30;99.90
40828;DHT22;26549;50.918;5.338;2023-05-23T03:45:33;15.50;99.90
40828;DHT22;26549;50.918;5.338;2023-05-23T03:47:59;15.40;99.90
40828;DHT22;26549;50.918;5.338;2023-05-23T03:50:25;15.50;99.90
40828;DHT22;26549;50.918;5.338;2023-05-23T03:52:51;15.40;99.90
40828;DHT22;26549;50.918;5.338;2023-05-23T03:55:17;15.60;99.90
40828;DHT22;26549;50.918;5.338;2023-05-23T03:57:47;15.40;99.90
40828;DHT22;26549;50.918;5.338;2023-05-23T04:00:13;15.50;99.90
40828;DHT22;26549;50.918;5.338;2023-05-23T04:02:39;15.50;99.90
40828;DHT22;26549;50.918;5.338;2023-05-23T04:05:06;15.50;99.90
40828;DHT22;26549;50.918;5.338;2023-05-23T04:07:35;15.60;99.90
40828;DHT22;26549;50.918;5.338;2023-05-23T04:10:02;15.50;99.90
40828;DHT22;26549;50.918;5.338;2023-05-23T04:12:28;15.50;99.90
40828;DHT22;26549;50.918;5.338;2023-05-23T04:14:57;15.70;99.90
40828;DHT22;26549;50.918;5.338;2023-05-23T04:17:24;15.70;99.90
40828;DHT22;26549;50.918;5.338;2023-05-23T04:19:50;15.80;99.90
40828;DHT22;26549;50.918;5.338;2023-05-23T04:22:16;15.80;99.90
40828;DHT22;26549;50.918;5.338;2023-05-23T04:24:42;15.80;99.90
40828;DHT22;26549;50.918;5.338;2023-05-23T04:27:08;15.70;99.90
40828;DHT22;26549;50.918;5.338;2023-05-23T04:29:34;15.60;99.90
40828;DHT22;26549;50.918;5.338;2023-05-23T04:32:01;15.60;99.90
40828;DHT22;26549;50.918;5.338;2023-05-23T04:34:27;15.60;99.90
40828;DHT22;26549;50.918;5.338;2023-05-23T04:36:53;15.50;99.90
40828;DHT22;26549;50.918;5.338;2023-05-23T04:39:19;15.40;99.90
40828;DHT22;26549;50.918;5.338;2023-05-23T04:41:45;15.40;99.90
40828;DHT22;26549;50.918;5.338;2023-05-23T04:44:11;15.30;99.90
40828;DHT22;26549;50.918;5.338;2023-05-23T04:46:39;15.30;99.90
40828;DHT22;26549;50.918;5.338;2023-05-23T04:49:09;15.30;99.90
40828;DHT22;26549;50.918;5.338;2023-05-23T04:51:35;15.30;99.90
40828;DHT22;26549;50.918;5.338;2023-05-23T04:54:02;15.30;99.90
40828;DHT22;26549;50.918;5.338;2023-05-23T04:56:28;15.20;99.90
40828;DHT22;26549;50.918;5.338;2023-05-23T04:58:55;15.40;99.90
40828;DHT22;26549;50.918;5.338;2023-05-23T05:01:21;15.60;99.90
40828;DHT22;26549;50.918;5.338;2023-05-23T05:03:51;15.70;99.90
40828;DHT22;26549;50.918;5.338;2023-05-23T05:06:17;15.70;99.90
40828;DHT22;26549;50.918;5.338;2023-05-23T05:08:43;15.80;99.90
40828;DHT22;26549;50.918;5.338;2023-05-23T05:11:09;16.00;99.90
40828;DHT22;26549;50.918;5.338;2023-05-23T05:13:35;16.10;99.90
40828;DHT22;26549;50.918;5.338;2023-05-23T05:16:02;16.20;99.90
40828;DHT22;26549;50.918;5.338;2023-05-23T05:18:29;16.20;99.90
40828;DHT22;26549;50.918;5.338;2023-05-23T05:20:54;16.10;99.90
40828;DHT22;26549;50.918;5.338;2023-05-23T05:23:25;16.10;99.90
40828;DHT22;26549;50.918;5.338;2023-05-23T05:25:55;16.30;99.90
40828;DHT22;26549;50.918;5.338;2023-05-23T05:28:21;16.20;99.90
40828;DHT22;26549;50.918;5.338;2023-05-23T05:30:47;16.40;99.90
40828;DHT22;26549;50.918;5.338;2023-05-23T05:33:13;16.40;99.90
40828;DHT22;26549;50.918;5.338;2023-05-23T05:35:39;16.50;99.90
40828;DHT22;26549;50.918;5.338;2023-05-23T05:38:05;16.50;99.90
40828;DHT22;26549;50.918;5.338;2023-05-23T05:40:32;16.40;99.90
40828;DHT22;26549;50.918;5.338;2023-05-23T05:42:58;16.30;99.90
40828;DHT22;26549;50.918;5.338;2023-05-23T05:45:24;16.20;99.90
40828;DHT22;26549;50.918;5.338;2023-05-23T05:47:50;16.10;99.90
40828;DHT22;26549;50.918;5.338;2023-05-23T05:50:16;16.20;99.90
40828;DHT22;26549;50.918;5.338;2023-05-23T05:52:42;16.40;99.90
40828;DHT22;26549;50.918;5.338;2023-05-23T05:55:09;16.50;99.90
40828;DHT22;26549;50.918;5.338;2023-05-23T05:57:41;16.40;99.90
40828;DHT22;26549;50.918;5.338;2023-05-23T06:00:13;16.20;99.90
40828;DHT22;26549;50.918;5.338;2023-05-23T06:02:44;16.30;99.90
40828;DHT22;26549;50.918;5.338;2023-05-23T06:05:13;16.10;99.90
40828;DHT22;26549;50.918;5.338;2023-05-23T06:07:41;16.10;99.90
40828;DHT22;26549;50.918;5.338;2023-05-23T06:10:08;16.10;99.90
40828;DHT22;26549;50.918;5.338;2023-05-23T06:12:34;16.10;99.90
40828;DHT22;26549;50.918;5.338;2023-05-23T06:15:00;16.10;99.90
40828;DHT22;26549;50.918;5.338;2023-05-23T06:17:26;16.30;99.90
40828;DHT22;26549;50.918;5.338;2023-05-23T06:19:52;16.30;99.90
40828;DHT22;26549;50.918;5.338;2023-05-23T06:22:18;16.40;99.90
40828;DHT22;26549;50.918;5.338;2023-05-23T06:24:44;16.30;99.90
40828;DHT22;26549;50.918;5.338;2023-05-23T06:27:11;16.30;99.90
40828;DHT22;26549;50.918;5.338;2023-05-23T06:29:37;16.20;99.90
40828;DHT22;26549;50.918;5.338;2023-05-23T06:32:03;16.20;99.90
40828;DHT22;26549;50.918;5.338;2023-05-23T06:34:29;16.20;99.90
40828;DHT22;26549;50.918;5.338;2023-05-23T06:36:55;16.30;99.90
40828;DHT22;26549;50.918;5.338;2023-05-23T06:39:21;16.30;99.90
40828;DHT22;26549;50.918;5.338;2023-05-23T06:41:47;16.50;99.90
40828;DHT22;26549;50.918;5.338;2023-05-23T06:44:13;16.30;99.90
40828;DHT22;26549;50.918;5.338;2023-05-23T06:46:39;16.40;99.90
40828;DHT22;26549;50.918;5.338;2023-05-23T06:49:04;16.20;99.90
40828;DHT22;26549;50.918;5.338;2023-05-23T06:51:30;16.20;99.90
40828;DHT22;26549;50.918;5.338;2023-05-23T06:53:56;16.30;99.90
40828;DHT22;26549;50.918;5.338;2023-05-23T06:56:24;16.10;99.90
40828;DHT22;26549;50.918;5.338;2023-05-23T06:58:51;16.00;99.90
40828;DHT22;26549;50.918;5.338;2023-05-23T07:01:17;15.90;99.90
40828;DHT22;26549;50.918;5.338;2023-05-23T07:03:43;15.90;99.90
40828;DHT22;26549;50.918;5.338;2023-05-23T07:06:10;15.80;99.90
40828;DHT22;26549;50.918;5.338;2023-05-23T07:08:37;15.60;99.90
40828;DHT22;26549;50.918;5.338;2023-05-23T07:11:04;15.40;99.90
40828;DHT22;26549;50.918;5.338;2023-05-23T07:13:31;15.30;99.90
40828;DHT22;26549;50.918;5.338;2023-05-23T07:15:57;15.20;99.90
40828;DHT22;26549;50.918;5.338;2023-05-23T07:18:23;15.20;99.90
40828;DHT22;26549;50.918;5.338;2023-05-23T07:20:49;15.20;99.90
40828;DHT22;26549;50.918;5.338;2023-05-23T07:23:15;15.10;99.90
40828;DHT22;26549;50.918;5.338;2023-05-23T07:25:41;15.20;99.90
40828;DHT22;26549;50.918;5.338;2023-05-23T07:28:09;15.40;99.90
40828;DHT22;26549;50.918;5.338;2023-05-23T07:30:35;15.40;99.90
40828;DHT22;26549;50.918;5.338;2023-05-23T07:33:00;15.30;99.90
40828;DHT22;26549;50.918;5.338;2023-05-23T07:35:26;15.30;99.90
40828;DHT22;26549;50.918;5.338;2023-05-23T07:37:52;15.40;99.90
40828;DHT22;26549;50.918;5.338;2023-05-23T07:40:18;15.30;99.90
40828;DHT22;26549;50.918;5.338;2023-05-23T07:42:44;15.00;99.90
40828;DHT22;26549;50.918;5.338;2023-05-23T07:45:10;15.00;99.90
40828;DHT22;26549;50.918;5.338;2023-05-23T07:47:36;15.00;99.90
40828;DHT22;26549;50.918;5.338;2023-05-23T07:50:03;14.90;99.90
40828;DHT22;26549;50.918;5.338;2023-05-23T07:52:29;14.90;99.90
40828;DHT22;26549;50.918;5.338;2023-05-23T07:54:58;15.10;99.90
40828;DHT22;26549;50.918;5.338;2023-05-23T07:57:24;15.10;99.90
40828;DHT22;26549;50.918;5.338;2023-05-23T07:59:50;15.10;99.90
40828;DHT22;26549;50.918;5.338;2023-05-23T08:02:16;15.10;99.90
40828;DHT22;26549;50.918;5.338;2023-05-23T08:04:42;15.20;99.90
40828;DHT22;26549;50.918;5.338;2023-05-23T08:07:09;15.10;99.90
40828;DHT22;26549;50.918;5.338;2023-05-23T08:09:36;15.00;99.90
40828;DHT22;26549;50.918;5.338;2023-05-23T08:12:02;14.90;99.90
40828;DHT22;26549;50.918;5.338;2023-05-23T08:14:28;15.00;99.90
40828;DHT22;26549;50.918;5.338;2023-05-23T08:16:54;15.00;99.90
40828;DHT22;26549;50.918;5.338;2023-05-23T08:19:20;14.90;99.90
40828;DHT22;26549;50.918;5.338;2023-05-23T08:21:46;14.90;99.90
40828;DHT22;26549;50.918;5.338;2023-05-23T08:24:12;15.20;99.90
40828;DHT22;26549;50.918;5.338;2023-05-23T08:26:38;14.90;99.90
40828;DHT22;26549;50.918;5.338;2023-05-23T08:29:04;14.70;99.90
40828;DHT22;26549;50.918;5.338;2023-05-23T08:31:31;14.70;99.90
40828;DHT22;26549;50.918;5.338;2023-05-23T08:33:59;14.90;99.90
40828;DHT22;26549;50.918;5.338;2023-05-23T08:36:24;15.00;99.90
40828;DHT22;26549;50.918;5.338;2023-05-23T08:38:50;15.10;99.90
40828;DHT22;26549;50.918;5.338;2023-05-23T08:41:21;15.00;99.90
40828;DHT22;26549;50.918;5.338;2023-05-23T08:43:48;15.20;99.90
40828;DHT22;26549;50.918;5.338;2023-05-23T08:46:15;15.20;99.90
40828;DHT22;26549;50.918;5.338;2023-05-23T08:48:42;15.30;99.90
40828;DHT22;26549;50.918;5.338;2023-05-23T08:51:09;15.40;99.90
40828;DHT22;26549;50.918;5.338;2023-05-23T08:53:40;15.30;99.90
40828;DHT22;26549;50.918;5.338;2023-05-23T08:56:08;15.30;99.90
40828;DHT22;26549;50.918;5.338;2023-05-23T08:58:34;15.10;99.90
40828;DHT22;26549;50.918;5.338;2023-05-23T09:01:01;14.80;99.90
40828;DHT22;26549;50.918;5.338;2023-05-23T09:03:26;14.80;99.90
40828;DHT22;26549;50.918;5.338;2023-05-23T09:05:56;14.70;99.90
40828;DHT22;26549;50.918;5.338;2023-05-23T09:08:24;14.80;99.90
40828;DHT22;26549;50.918;5.338;2023-05-23T09:10:50;14.70;99.90
40828;DHT22;26549;50.918;5.338;2023-05-23T09:13:17;14.90;99.90
40828;DHT22;26549;50.918;5.338;2023-05-23T09:16:01;15.00;99.90
40828;DHT22;26549;50.918;5.338;2023-05-23T09:18:41;15.00;99.90
40828;DHT22;26549;50.918;5.338;2023-05-23T09:21:08;15.00;99.90
40828;DHT22;26549;50.918;5.338;2023-05-23T09:23:35;15.20;99.90
40828;DHT22;26549;50.918;5.338;2023-05-23T09:26:09;15.50;99.90
40828;DHT22;26549;50.918;5.338;2023-05-23T09:28:37;15.80;99.90
40828;DHT22;26549;50.918;5.338;2023-05-23T09:31:05;15.90;99.90
40828;DHT22;26549;50.918;5.338;2023-05-23T09:33:42;16.00;99.90
40828;DHT22;26549;50.918;5.338;2023-05-23T09:36:08;16.10;99.90
40828;DHT22;26549;50.918;5.338;2023-05-23T09:38:38;16.20;99.90
40828;DHT22;26549;50.918;5.338;2023-05-23T09:41:06;16.50;99.90
40828;DHT22;26549;50.918;5.338;2023-05-23T09:43:32;16.40;99.90
40828;DHT22;26549;50.918;5.338;2023-05-23T09:46:09;16.50;99.90
40828;DHT22;26549;50.918;5.338;2023-05-23T09:48:35;16.50;99.90
40828;DHT22;26549;50.918;5.338;2023-05-23T09:51:05;16.30;99.90
40828;DHT22;26549;50.918;5.338;2023-05-23T09:53:31;16.30;99.90
40828;DHT22;26549;50.918;5.338;2023-05-23T09:55:58;16.40;99.90
40828;DHT22;26549;50.918;5.338;2023-05-23T09:58:26;16.20;99.90
40828;DHT22;26549;50.918;5.338;2023-05-23T10:00:55;16.20;99.90
40828;DHT22;26549;50.918;5.338;2023-05-23T10:03:36;16.40;99.90
40828;DHT22;26549;50.918;5.338;2023-05-23T10:06:09;16.30;99.90
40828;DHT22;26549;50.918;5.338;2023-05-23T10:08:42;16.30;99.90
40828;DHT22;26549;50.918;5.338;2023-05-23T10:13:46;16.00;99.90
40828;DHT22;26549;50.918;5.338;2023-05-23T10:16:22;15.80;99.90
40828;DHT22;26549;50.918;5.338;2023-05-23T10:19:02;15.80;99.90
40828;DHT22;26549;50.918;5.338;2023-05-23T10:21:42;15.90;99.90
40828;DHT22;26549;50.918;5.338;2023-05-23T10:24:15;15.60;99.90
40828;DHT22;26549;50.918;5.338;2023-05-23T10:26:42;15.80;99.90
40828;DHT22;26549;50.918;5.338;2023-05-23T10:29:12;15.70;99.90
40828;DHT22;26549;50.918;5.338;2023-05-23T10:31:38;15.80;99.90
40828;DHT22;26549;50.918;5.338;2023-05-23T10:37:02;15.90;99.90
40828;DHT22;26549;50.918;5.338;2023-05-23T10:39:33;16.10;99.90
40828;DHT22;26549;50.918;5.338;2023-05-23T10:42:18;16.00;99.90
40828;DHT22;26549;50.918;5.338;2023-05-23T10:44:46;16.30;99.90
40828;DHT22;26549;50.918;5.338;2023-05-23T10:47:25;16.40;99.90
40828;DHT22;26549;50.918;5.338;2023-05-23T10:49:52;16.40;99.90
40828;DHT22;26549;50.918;5.338;2023-05-23T10:52:23;16.50;99.90
40828;DHT22;26549;50.918;5.338;2023-05-23T10:54:53;16.40;99.90
40828;DHT22;26549;50.918;5.338;2023-05-23T10:57:24;16.40;99.90
40828;DHT22;26549;50.918;5.338;2023-05-23T10:59:52;16.10;99.90
40828;DHT22;26549;50.918;5.338;2023-05-23T11:02:25;16.20;99.90
40828;DHT22;26549;50.918;5.338;2023-05-23T11:05:22;16.50;99.90
40828;DHT22;26549;50.918;5.338;2023-05-23T11:08:11;17.00;99.90
40828;DHT22;26549;50.918;5.338;2023-05-23T11:13:17;17.10;99.90
40828;DHT22;26549;50.918;5.338;2023-05-23T11:15:43;16.90;99.90
40828;DHT22;26549;50.918;5.338;2023-05-23T11:18:21;16.90;99.90
40828;DHT22;26549;50.918;5.338;2023-05-23T11:20:51;16.90;99.90
40828;DHT22;26549;50.918;5.338;2023-05-23T11:23:17;17.30;99.90
40828;DHT22;26549;50.918;5.338;2023-05-23T11:25:52;17.30;99.90
40828;DHT22;26549;50.918;5.338;2023-05-23T11:28:20;17.30;99.90
40828;DHT22;26549;50.918;5.338;2023-05-23T11:30:49;17.00;99.90
40828;DHT22;26549;50.918;5.338;2023-05-23T11:33:15;17.20;99.90
40828;DHT22;26549;50.918;5.338;2023-05-23T11:35:47;17.60;99.90
40828;DHT22;26549;50.918;5.338;2023-05-23T11:38:15;17.80;99.90
40828;DHT22;26549;50.918;5.338;2023-05-23T11:40:51;18.00;99.90
40828;DHT22;26549;50.918;5.338;2023-05-23T11:43:16;18.00;99.90
40828;DHT22;26549;50.918;5.338;2023-05-23T11:45:46;18.30;99.90
40828;DHT22;26549;50.918;5.338;2023-05-23T11:48:14;18.30;99.90
40828;DHT22;26549;50.918;5.338;2023-05-23T11:50:47;18.00;99.90
40828;DHT22;26549;50.918;5.338;2023-05-23T11:53:16;17.70;99.90
40828;DHT22;26549;50.918;5.338;2023-05-23T11:55:56;17.70;99.90
40828;DHT22;26549;50.918;5.338;2023-05-23T11:58:39;17.80;99.90
40828;DHT22;26549;50.918;5.338;2023-05-23T12:01:07;17.60;99.90
40828;DHT22;26549;50.918;5.338;2023-05-23T12:03:34;17.70;99.90
40828;DHT22;26549;50.918;5.338;2023-05-23T12:06:08;17.70;99.60
40828;DHT22;26549;50.918;5.338;2023-05-23T12:08:34;18.00;99.20
40828;DHT22;26549;50.918;5.338;2023-05-23T12:11:01;18.20;99.40
40828;DHT22;26549;50.918;5.338;2023-05-23T12:13:28;18.40;98.10
40828;DHT22;26549;50.918;5.338;2023-05-23T12:15:59;18.10;97.30
40828;DHT22;26549;50.918;5.338;2023-05-23T12:18:30;17.70;97.50
40828;DHT22;26549;50.918;5.338;2023-05-23T12:21:03;17.70;97.90
40828;DHT22;26549;50.918;5.338;2023-05-23T12:23:33;18.10;99.00
40828;DHT22;26549;50.918;5.338;2023-05-23T12:26:03;18.50;97.30
40828;DHT22;26549;50.918;5.338;2023-05-23T12:28:41;18.60;97.70
40828;DHT22;26549;50.918;5.338;2023-05-23T12:31:20;18.40;97.60
40828;DHT22;26549;50.918;5.338;2023-05-23T12:33:47;18.10;98.30
40828;DHT22;26549;50.918;5.338;2023-05-23T12:36:24;18.10;97.60
40828;DHT22;26549;50.918;5.338;2023-05-23T12:38:53;17.90;98.20
40828;DHT22;26549;50.918;5.338;2023-05-23T12:41:20;18.10;97.40
40828;DHT22;26549;50.918;5.338;2023-05-23T12:46:16;18.10;97.30
40828;DHT22;26549;50.918;5.338;2023-05-23T12:48:42;18.30;97.30
40828;DHT22;26549;50.918;5.338;2023-05-23T12:51:08;18.40;97.10
40828;DHT22;26549;50.918;5.338;2023-05-23T12:53:33;18.00;97.60
40828;DHT22;26549;50.918;5.338;2023-05-23T12:56:00;18.10;97.30
40828;DHT22;26549;50.918;5.338;2023-05-23T12:58:26;18.30;96.50
40828;DHT22;26549;50.918;5.338;2023-05-23T13:00:52;18.30;96.70
40828;DHT22;26549;50.918;5.338;2023-05-23T13:03:18;18.40;96.80
40828;DHT22;26549;50.918;5.338;2023-05-23T13:05:44;18.50;97.00
40828;DHT22;26549;50.918;5.338;2023-05-23T13:08:10;18.40;96.10
40828;DHT22;26549;50.918;5.338;2023-05-23T13:10:37;18.40;95.70
40828;DHT22;26549;50.918;5.338;2023-05-23T13:13:03;18.40;95.40
40828;DHT22;26549;50.918;5.338;2023-05-23T13:15:30;18.20;96.00
40828;DHT22;26549;50.918;5.338;2023-05-23T13:17:56;18.40;96.40
40828;DHT22;26549;50.918;5.338;2023-05-23T13:20:21;18.50;95.90
40828;DHT22;26549;50.918;5.338;2023-05-23T13:22:47;18.60;95.50
40828;DHT22;26549;50.918;5.338;2023-05-23T13:25:14;18.60;95.40
40828;DHT22;26549;50.918;5.338;2023-05-23T13:27:40;18.10;95.20
40828;DHT22;26549;50.918;5.338;2023-05-23T13:30:07;18.10;95.90
40828;DHT22;26549;50.918;5.338;2023-05-23T13:32:33;18.00;95.70
40828;DHT22;26549;50.918;5.338;2023-05-23T13:34:59;18.20;95.30
40828;DHT22;26549;50.918;5.338;2023-05-23T13:37:25;18.50;96.20
40828;DHT22;26549;50.918;5.338;2023-05-23T13:39:51;18.50;95.50
40828;DHT22;26549;50.918;5.338;2023-05-23T13:42:17;18.30;96.10
40828;DHT22;26549;50.918;5.338;2023-05-23T13:44:42;18.50;96.00
40828;DHT22;26549;50.918;5.338;2023-05-23T13:47:10;18.60;95.70
40828;DHT22;26549;50.918;5.338;2023-05-23T13:49:36;18.60;95.90
40828;DHT22;26549;50.918;5.338;2023-05-23T13:52:02;18.60;95.90
40828;DHT22;26549;50.918;5.338;2023-05-23T13:54:28;18.60;95.40
40828;DHT22;26549;50.918;5.338;2023-05-23T13:56:53;18.60;95.60
40828;DHT22;26549;50.918;5.338;2023-05-23T13:59:19;18.30;95.30
40828;DHT22;26549;50.918;5.338;2023-05-23T14:01:46;18.30;95.30
40828;DHT22;26549;50.918;5.338;2023-05-23T14:04:12;18.40;95.40
40828;DHT22;26549;50.918;5.338;2023-05-23T14:06:38;18.70;95.60
40828;DHT22;26549;50.918;5.338;2023-05-23T14:09:04;18.70;95.10
40828;DHT22;26549;50.918;5.338;2023-05-23T14:11:33;18.90;95.30
40828;DHT22;26549;50.918;5.338;2023-05-23T14:13:59;18.90;94.90
40828;DHT22;26549;50.918;5.338;2023-05-23T14:16:25;18.70;95.10
40828;DHT22;26549;50.918;5.338;2023-05-23T14:18:51;18.70;95.60
40828;DHT22;26549;50.918;5.338;2023-05-23T14:21:17;18.90;94.80
40828;DHT22;26549;50.918;5.338;2023-05-23T14:23:43;18.80;95.10
40828;DHT22;26549;50.918;5.338;2023-05-23T14:26:09;18.30;95.00
40828;DHT22;26549;50.918;5.338;2023-05-23T14:28:35;18.10;95.20
40828;DHT22;26549;50.918;5.338;2023-05-23T14:31:01;18.20;95.40
40828;DHT22;26549;50.918;5.338;2023-05-23T14:33:27;18.30;95.90
40828;DHT22;26549;50.918;5.338;2023-05-23T14:35:53;18.30;94.80
40828;DHT22;26549;50.918;5.338;2023-05-23T14:38:18;18.50;95.50
40828;DHT22;26549;50.918;5.338;2023-05-23T14:40:44;18.70;94.50
40828;DHT22;26549;50.918;5.338;2023-05-23T14:43:11;18.70;93.10
40828;DHT22;26549;50.918;5.338;2023-05-23T14:45:40;18.70;93.70
40828;DHT22;26549;50.918;5.338;2023-05-23T14:48:06;18.80;94.10
40828;DHT22;26549;50.918;5.338;2023-05-23T14:50:32;18.90;94.10
40828;DHT22;26549;50.918;5.338;2023-05-23T14:52:58;18.70;94.40
40828;DHT22;26549;50.918;5.338;2023-05-23T14:55:24;18.70;94.10
40828;DHT22;26549;50.918;5.338;2023-05-23T14:57:50;18.60;94.90
40828;DHT22;26549;50.918;5.338;2023-05-23T15:00:16;19.00;94.60
40828;DHT22;26549;50.918;5.338;2023-05-23T15:02:42;19.30;94.20
40828;DHT22;26549;50.918;5.338;2023-05-23T15:05:08;19.00;93.40
40828;DHT22;26549;50.918;5.338;2023-05-23T15:07:34;19.20;92.40
40828;DHT22;26549;50.918;5.338;2023-05-23T15:10:01;19.50;92.00
40828;DHT22;26549;50.918;5.338;2023-05-23T15:12:27;19.20;93.10
40828;DHT22;26549;50.918;5.338;2023-05-23T15:14:53;19.00;93.20
40828;DHT22;26549;50.918;5.338;2023-05-23T15:17:27;19.20;92.20
40828;DHT22;26549;50.918;5.338;2023-05-23T15:19:53;19.20;92.30
40828;DHT22;26549;50.918;5.338;2023-05-23T15:22:19;19.10;92.40
40828;DHT22;26549;50.918;5.338;2023-05-23T15:24:45;18.90;92.60
40828;DHT22;26549;50.918;5.338;2023-05-23T15:27:11;18.60;93.10
40828;DHT22;26549;50.918;5.338;2023-05-23T15:29:37;18.50;92.90
40828;DHT22;26549;50.918;5.338;2023-05-23T15:32:06;18.40;93.00
40828;DHT22;26549;50.918;5.338;2023-05-23T15:34:32;18.50;93.20
40828;DHT22;26549;50.918;5.338;2023-05-23T15:36:58;18.30;93.20
40828;DHT22;26549;50.918;5.338;2023-05-23T15:39:25;18.20;93.20
40828;DHT22;26549;50.918;5.338;2023-05-23T15:41:52;18.20;93.70
40828;DHT22;26549;50.918;5.338;2023-05-23T15:44:18;18.30;93.40
40828;DHT22;26549;50.918;5.338;2023-05-23T15:46:46;18.20;93.50
40828;DHT22;26549;50.918;5.338;2023-05-23T15:49:13;18.30;93.10
40828;DHT22;26549;50.918;5.338;2023-05-23T15:51:38;18.30;93.10